createdAt,value
2023-04-27T00:00:19.405Z,10.95
2023-04-27T00:01:21.501Z,10.91
2023-04-27T00:02:23.914Z,10.90
2023-04-27T00:03:26.646Z,10.89
2023-04-27T00:04:29.689Z,10.90
2023-04-27T00:05:36.193Z,10.90
2023-04-27T00:06:38.566Z,10.91
2023-04-27T00:07:40.646Z,10.88
2023-04-27T00:08:43.772Z,10.86
2023-04-27T00:09:46.212Z,10.83
2023-04-27T00:10:48.898Z,10.80
2023-04-27T00:11:51.086Z,10.80
2023-04-27T00:12:53.676Z,10.77
2023-04-27T00:13:56.144Z,10.73
2023-04-27T00:14:58.525Z,10.74
2023-04-27T00:16:00.875Z,10.74
2023-04-27T00:17:03.153Z,10.75
2023-04-27T00:18:05.933Z,10.74
2023-04-27T00:19:08.057Z,10.70
2023-04-27T00:20:11.457Z,10.69
2023-04-27T00:21:13.665Z,10.68
2023-04-27T00:22:16.239Z,10.65
2023-04-27T00:23:18.559Z,10.62
2023-04-27T00:24:20.728Z,10.61
2023-04-27T00:25:23.076Z,10.60
2023-04-27T00:26:25.321Z,10.54
2023-04-27T00:27:28.268Z,10.51
2023-04-27T00:28:31.109Z,10.52
2023-04-27T00:29:34.372Z,10.47
2023-04-27T00:30:36.706Z,10.42
2023-04-27T00:31:39.026Z,10.41
2023-04-27T00:32:41.250Z,10.38
2023-04-27T00:33:43.681Z,10.37
2023-04-27T00:34:45.904Z,10.35
2023-04-27T00:35:48.231Z,10.35
2023-04-27T00:36:50.589Z,10.38
2023-04-27T00:37:55.139Z,10.37
2023-04-27T00:38:57.885Z,10.37
2023-04-27T00:40:00.771Z,10.37
2023-04-27T00:41:04.370Z,10.37
2023-04-27T00:42:06.809Z,10.33
2023-04-27T00:43:09.076Z,10.33
2023-04-27T00:44:11.974Z,10.34
2023-04-27T00:45:14.115Z,10.31
2023-04-27T00:46:17.144Z,10.30
2023-04-27T00:47:19.559Z,10.26
2023-04-27T00:48:22.365Z,10.25
2023-04-27T00:49:26.672Z,10.23
2023-04-27T00:50:29.184Z,10.20
2023-04-27T00:51:31.786Z,10.15
2023-04-27T00:52:36.005Z,10.12
2023-04-27T00:53:38.695Z,10.13
2023-04-27T00:54:41.483Z,10.14
2023-04-27T00:55:43.666Z,10.12
2023-04-27T00:56:48.403Z,10.09
2023-04-27T00:57:50.787Z,10.08
2023-04-27T00:58:53.047Z,10.06
2023-04-27T00:59:55.430Z,10.04
2023-04-27T01:00:58.835Z,9.97
2023-04-27T01:02:01.376Z,9.97
2023-04-27T01:03:03.883Z,9.97
2023-04-27T01:04:06.820Z,9.97
2023-04-27T01:05:09.468Z,9.95
2023-04-27T01:06:12.541Z,9.93
2023-04-27T01:07:14.714Z,9.86
2023-04-27T01:08:16.982Z,9.86
2023-04-27T01:09:19.513Z,9.87
2023-04-27T01:10:24.192Z,9.86
2023-04-27T01:11:26.489Z,9.84
2023-04-27T01:12:28.800Z,9.80
2023-04-27T01:13:32.133Z,9.83
2023-04-27T01:14:36.230Z,9.85
2023-04-27T01:15:38.551Z,9.87
2023-04-27T01:16:42.728Z,9.88
2023-04-27T01:17:44.955Z,9.91
2023-04-27T01:18:47.372Z,9.90
2023-04-27T01:19:49.909Z,9.88
2023-04-27T01:20:52.363Z,9.85
2023-04-27T01:21:54.630Z,9.83
2023-04-27T01:22:59.508Z,9.79
2023-04-27T01:24:04.937Z,9.77
2023-04-27T01:25:07.832Z,9.73
2023-04-27T01:26:10.428Z,9.71
2023-04-27T01:27:12.691Z,9.66
2023-04-27T01:28:14.993Z,9.60
2023-04-27T01:29:17.497Z,9.58
2023-04-27T01:30:19.866Z,9.54
2023-04-27T01:31:22.183Z,9.50
2023-04-27T01:32:24.787Z,9.49
2023-04-27T01:33:27.970Z,9.44
2023-04-27T01:34:30.143Z,9.41
2023-04-27T01:35:32.330Z,9.37
2023-04-27T01:36:35.658Z,9.37
2023-04-27T01:37:37.919Z,9.37
2023-04-27T01:38:40.725Z,9.36
2023-04-27T01:39:43.385Z,9.34
2023-04-27T01:40:45.606Z,9.32
2023-04-27T01:41:48.639Z,9.35
2023-04-27T01:42:50.866Z,9.31
2023-04-27T01:43:53.172Z,9.31
2023-04-27T01:44:55.677Z,9.32
2023-04-27T01:46:09.548Z,9.29
2023-04-27T01:47:11.935Z,9.28
2023-04-27T01:48:15.872Z,9.26
2023-04-27T01:49:19.534Z,9.27
2023-04-27T01:50:21.813Z,9.21
2023-04-27T01:51:25.054Z,9.20
2023-04-27T01:52:27.268Z,9.21
2023-04-27T01:53:30.934Z,9.22
2023-04-27T01:54:33.234Z,9.25
2023-04-27T01:55:35.816Z,9.25
2023-04-27T01:56:38.332Z,9.26
2023-04-27T01:57:40.597Z,9.25
2023-04-27T01:58:42.758Z,9.26
2023-04-27T01:59:45.136Z,9.25
2023-04-27T02:00:47.390Z,9.19
2023-04-27T02:01:49.581Z,9.10
2023-04-27T02:02:52.749Z,9.10
2023-04-27T02:03:55.384Z,9.11
2023-04-27T02:04:58.529Z,9.08
2023-04-27T02:06:01.595Z,9.12
2023-04-27T02:07:04.369Z,9.15
2023-04-27T02:08:06.770Z,9.14
2023-04-27T02:09:09.012Z,9.12
2023-04-27T02:10:14.358Z,9.14
2023-04-27T02:11:16.505Z,9.13
2023-04-27T02:12:18.816Z,9.10
2023-04-27T02:13:21.009Z,9.10
2023-04-27T02:14:23.693Z,9.11
2023-04-27T02:15:26.507Z,9.07
2023-04-27T02:16:29.539Z,9.04
2023-04-27T02:17:34.249Z,9.01
2023-04-27T02:18:36.752Z,9.00
2023-04-27T02:19:39.009Z,9.00
2023-04-27T02:20:41.412Z,8.97
2023-04-27T02:21:43.659Z,8.96
2023-04-27T02:22:46.874Z,8.93
2023-04-27T02:23:49.186Z,8.96
2023-04-27T02:24:53.050Z,8.95
2023-04-27T02:25:56.180Z,8.93
2023-04-27T02:26:58.453Z,8.93
2023-04-27T02:28:00.489Z,8.94
2023-04-27T02:29:03.359Z,8.91
2023-04-27T02:30:10.663Z,8.90
2023-04-27T02:31:14.112Z,8.85
2023-04-27T02:32:16.427Z,8.83
2023-04-27T02:33:18.722Z,8.80
2023-04-27T02:34:21.853Z,8.81
2023-04-27T02:35:24.604Z,8.77
2023-04-27T02:36:26.877Z,8.78
2023-04-27T02:37:30.603Z,8.79
2023-04-27T02:38:32.855Z,8.79
2023-04-27T02:39:35.703Z,8.80
2023-04-27T02:40:38.133Z,8.80
2023-04-27T02:41:41.835Z,8.82
2023-04-27T02:42:44.518Z,8.83
2023-04-27T02:43:46.464Z,8.82
2023-04-27T02:44:48.768Z,8.79
2023-04-27T02:45:51.027Z,8.81
2023-04-27T02:46:53.394Z,8.80
2023-04-27T02:47:57.467Z,8.79
2023-04-27T02:48:59.583Z,8.77
2023-04-27T02:50:01.962Z,8.76
2023-04-27T02:51:06.123Z,8.76
2023-04-27T02:52:09.067Z,8.77
2023-04-27T02:53:11.681Z,8.80
2023-04-27T02:54:13.902Z,8.81
2023-04-27T02:55:16.236Z,8.83
2023-04-27T02:56:18.671Z,8.85
2023-04-27T02:57:20.981Z,8.85
2023-04-27T02:58:23.433Z,8.86
2023-04-27T02:59:25.603Z,8.86
2023-04-27T03:00:27.929Z,8.84
2023-04-27T03:01:29.994Z,8.83
2023-04-27T03:02:32.530Z,8.80
2023-04-27T03:03:35.078Z,8.73
2023-04-27T03:04:37.630Z,8.73
2023-04-27T03:05:39.926Z,8.75
2023-04-27T03:06:42.732Z,8.77
2023-04-27T03:07:44.873Z,8.78
2023-04-27T03:08:48.056Z,8.79
2023-04-27T03:09:50.187Z,8.80
2023-04-27T03:10:52.448Z,8.80
2023-04-27T03:11:54.633Z,8.79
2023-04-27T03:12:56.806Z,8.78
2023-04-27T03:13:58.971Z,8.72
2023-04-27T03:15:01.729Z,8.72
2023-04-27T03:16:04.003Z,8.73
2023-04-27T03:17:06.214Z,8.72
2023-04-27T03:18:08.567Z,8.72
2023-04-27T03:19:10.894Z,8.71
2023-04-27T03:20:13.425Z,8.68
2023-04-27T03:21:15.759Z,8.68
2023-04-27T03:22:17.916Z,8.67
2023-04-27T03:23:20.514Z,8.66
2023-04-27T03:24:22.620Z,8.58
2023-04-27T03:25:25.524Z,8.59
2023-04-27T03:26:27.855Z,8.56
2023-04-27T03:27:30.113Z,8.60
2023-04-27T03:28:32.366Z,8.61
2023-04-27T03:29:35.264Z,8.60
2023-04-27T03:30:39.127Z,8.59
2023-04-27T03:31:42.095Z,8.61
2023-04-27T03:32:46.341Z,8.62
2023-04-27T03:33:49.129Z,8.64
2023-04-27T03:34:51.306Z,8.63
2023-04-27T03:35:57.844Z,8.57
2023-04-27T03:37:01.640Z,8.58
2023-04-27T03:38:03.989Z,8.59
2023-04-27T03:39:07.042Z,8.57
2023-04-27T03:40:11.387Z,8.58
2023-04-27T03:41:13.851Z,8.54
2023-04-27T03:42:16.762Z,8.54
2023-04-27T03:43:20.920Z,8.56
2023-04-27T03:44:23.832Z,8.57
2023-04-27T03:45:26.999Z,8.59
2023-04-27T03:46:29.657Z,8.57
2023-04-27T03:47:32.453Z,8.61
2023-04-27T03:48:34.687Z,8.60
2023-04-27T03:49:36.891Z,8.63
2023-04-27T03:50:39.152Z,8.66
2023-04-27T03:51:41.419Z,8.63
2023-04-27T03:52:43.484Z,8.66
2023-04-27T03:53:45.856Z,8.67
2023-04-27T03:54:49.354Z,8.68
2023-04-27T03:55:53.434Z,8.67
2023-04-27T03:56:56.269Z,8.67
2023-04-27T03:57:59.062Z,8.66
2023-04-27T03:59:01.820Z,8.66
2023-04-27T04:00:10.203Z,8.68
2023-04-27T04:01:14.373Z,8.67
2023-04-27T04:02:17.063Z,8.70
2023-04-27T04:03:20.402Z,8.73
2023-04-27T04:04:23.481Z,8.75
2023-04-27T04:05:26.491Z,8.75
2023-04-27T04:06:30.434Z,8.75
2023-04-27T04:07:32.763Z,8.75
2023-04-27T04:08:35.445Z,8.75
2023-04-27T04:09:38.165Z,8.72
2023-04-27T04:10:41.127Z,8.71
2023-04-27T04:11:44.021Z,8.68
2023-04-27T04:12:47.940Z,8.65
2023-04-27T04:13:51.581Z,8.64
2023-04-27T04:14:54.133Z,8.63
2023-04-27T04:16:08.124Z,8.62
2023-04-27T04:17:11.444Z,8.58
2023-04-27T04:18:15.449Z,8.59
2023-04-27T04:19:17.611Z,8.60
2023-04-27T04:20:20.020Z,8.61
2023-04-27T04:21:22.738Z,8.63
2023-04-27T04:22:25.045Z,8.65
2023-04-27T04:23:27.428Z,8.65
2023-04-27T04:24:29.725Z,8.67
2023-04-27T04:25:31.946Z,8.67
2023-04-27T04:26:34.344Z,8.63
2023-04-27T04:27:37.104Z,8.65
2023-04-27T04:28:39.646Z,8.66
2023-04-27T04:29:42.870Z,8.68
2023-04-27T04:30:45.199Z,8.69
2023-04-27T04:31:47.987Z,8.68
2023-04-27T04:32:50.495Z,8.67
2023-04-27T04:33:53.653Z,8.65
2023-04-27T04:34:58.050Z,8.65
2023-04-27T04:36:05.287Z,8.63
2023-04-27T04:37:09.085Z,8.63
2023-04-27T04:38:12.634Z,8.61
2023-04-27T04:39:16.536Z,8.62
2023-04-27T04:40:19.379Z,8.60
2023-04-27T04:41:22.104Z,8.58
2023-04-27T04:42:24.341Z,8.59
2023-04-27T04:43:28.920Z,8.57
2023-04-27T04:44:31.090Z,8.54
2023-04-27T04:45:33.261Z,8.51
2023-04-27T04:46:36.350Z,8.49
2023-04-27T04:47:38.837Z,8.45
2023-04-27T04:48:41.073Z,8.41
2023-04-27T04:49:43.891Z,8.41
2023-04-27T04:50:46.796Z,8.38
2023-04-27T04:51:48.924Z,8.36
2023-04-27T04:52:51.618Z,8.33
2023-04-27T04:53:54.513Z,8.33
2023-04-27T04:54:58.109Z,8.34
2023-04-27T04:57:26.535Z,8.47
2023-04-27T04:58:29.121Z,8.33
2023-04-27T04:59:34.220Z,8.32
2023-04-27T05:00:36.652Z,8.38
2023-04-27T05:01:39.395Z,8.34
2023-04-27T05:02:41.985Z,8.40
2023-04-27T05:03:44.605Z,8.40
2023-04-27T05:04:47.903Z,8.42
2023-04-27T05:05:50.122Z,8.45
2023-04-27T05:06:52.296Z,8.47
2023-04-27T05:07:54.489Z,8.49
2023-04-27T05:08:57.208Z,8.52
2023-04-27T05:09:59.679Z,8.50
2023-04-27T05:11:01.868Z,8.50
2023-04-27T05:12:04.691Z,8.48
2023-04-27T05:13:07.284Z,8.47
2023-04-27T05:14:10.080Z,8.43
2023-04-27T05:15:12.605Z,8.45
2023-04-27T05:16:16.386Z,8.47
2023-04-27T05:17:18.765Z,8.51
2023-04-27T05:18:20.840Z,8.51
2023-04-27T05:19:23.044Z,8.54
2023-04-27T05:20:25.423Z,8.54
2023-04-27T05:21:27.676Z,8.47
2023-04-27T05:22:29.730Z,8.44
2023-04-27T05:23:31.821Z,8.45
2023-04-27T05:24:34.102Z,8.43
2023-04-27T05:25:36.384Z,8.41
2023-04-27T05:26:39.837Z,8.43
2023-04-27T05:27:42.376Z,8.41
2023-04-27T05:28:44.828Z,8.41
2023-04-27T05:29:46.922Z,8.40
2023-04-27T05:30:49.102Z,8.40
2023-04-27T05:31:51.354Z,8.38
2023-04-27T05:32:53.753Z,8.40
2023-04-27T05:33:56.038Z,8.41
2023-04-27T05:34:58.712Z,8.43
2023-04-27T05:36:01.273Z,8.45
2023-04-27T05:37:03.451Z,8.48
2023-04-27T05:38:05.609Z,8.50
2023-04-27T05:39:09.542Z,8.54
2023-04-27T05:40:12.075Z,8.53
2023-04-27T05:41:15.892Z,8.56
2023-04-27T05:42:18.121Z,8.54
2023-04-27T05:43:20.417Z,8.58
2023-04-27T05:44:22.574Z,8.61
2023-04-27T05:45:24.753Z,8.62
2023-04-27T05:46:27.095Z,8.62
2023-04-27T05:47:29.926Z,8.63
2023-04-27T05:48:32.586Z,8.59
2023-04-27T05:49:34.773Z,8.58
2023-04-27T05:50:37.615Z,8.51
2023-04-27T05:51:39.800Z,8.48
2023-04-27T05:52:42.008Z,8.47
2023-04-27T05:53:44.238Z,8.48
2023-04-27T05:54:47.584Z,8.49
2023-04-27T05:55:49.860Z,8.50
2023-04-27T05:56:52.530Z,8.48
2023-04-27T05:58:06.669Z,8.53
2023-04-27T05:59:01.227Z,8.51
2023-04-27T06:00:04.449Z,8.50
2023-04-27T06:01:08.636Z,8.51
2023-04-27T06:02:10.835Z,8.54
2023-04-27T06:03:13.552Z,8.58
2023-04-27T06:04:16.149Z,8.58
2023-04-27T06:05:18.579Z,8.59
2023-04-27T06:06:21.136Z,8.58
2023-04-27T06:07:23.305Z,8.59
2023-04-27T06:08:26.496Z,8.57
2023-04-27T06:09:30.607Z,8.57
2023-04-27T06:10:33.444Z,8.58
2023-04-27T06:11:35.720Z,8.58
2023-04-27T06:12:38.209Z,8.56
2023-04-27T06:13:40.370Z,8.56
2023-04-27T06:14:42.653Z,8.52
2023-04-27T06:15:44.996Z,8.49
2023-04-27T06:16:47.191Z,8.47
2023-04-27T06:17:49.953Z,8.46
2023-04-27T06:18:53.263Z,8.45
2023-04-27T06:19:55.552Z,8.46
2023-04-27T06:21:01.340Z,8.37
2023-04-27T06:22:03.547Z,8.36
2023-04-27T06:23:05.695Z,8.32
2023-04-27T06:24:07.913Z,8.36
2023-04-27T06:25:09.956Z,8.36
2023-04-27T06:26:12.966Z,8.33
2023-04-27T06:27:15.107Z,8.36
2023-04-27T06:28:17.039Z,8.38
2023-04-27T06:29:19.138Z,8.36
2023-04-27T06:30:22.611Z,8.35
2023-04-27T06:31:26.598Z,8.35
2023-04-27T06:32:28.953Z,8.36
2023-04-27T06:33:31.038Z,8.40
2023-04-27T06:34:33.693Z,8.41
2023-04-27T06:35:35.850Z,8.43
2023-04-27T06:36:38.587Z,8.41
2023-04-27T06:37:40.845Z,8.42
2023-04-27T06:38:43.478Z,8.41
2023-04-27T06:39:46.836Z,8.37
2023-04-27T06:40:52.519Z,8.38
2023-04-27T06:41:55.391Z,8.38
2023-04-27T06:42:59.816Z,8.38
2023-04-27T06:44:01.976Z,8.38
2023-04-27T06:45:04.604Z,8.36
2023-04-27T06:46:07.362Z,8.38
2023-04-27T06:47:09.991Z,8.40
2023-04-27T06:48:12.117Z,8.38
2023-04-27T06:49:14.447Z,8.42
2023-04-27T06:50:17.086Z,8.45
2023-04-27T06:51:19.303Z,8.47
2023-04-27T06:52:21.547Z,8.47
2023-04-27T06:53:24.013Z,8.48
2023-04-27T06:54:26.618Z,8.50
2023-04-27T06:55:28.807Z,8.50
2023-04-27T06:56:31.026Z,8.51
2023-04-27T06:57:33.373Z,8.49
2023-04-27T06:58:35.455Z,8.53
2023-04-27T06:59:38.236Z,8.55
2023-04-27T07:00:41.040Z,8.57
2023-04-27T07:01:43.165Z,8.56
2023-04-27T07:02:45.536Z,8.57
2023-04-27T07:03:48.529Z,8.59
2023-04-27T07:04:50.897Z,8.56
2023-04-27T07:05:53.131Z,8.57
2023-04-27T07:06:56.023Z,8.56
2023-04-27T07:07:58.939Z,8.56
2023-04-27T07:09:06.023Z,8.54
2023-04-27T07:10:08.168Z,8.54
2023-04-27T07:11:10.368Z,8.51
2023-04-27T07:12:12.648Z,8.49
2023-04-27T07:13:15.165Z,8.51
2023-04-27T07:14:17.480Z,8.51
2023-04-27T07:15:19.649Z,8.58
2023-04-27T07:16:21.885Z,8.59
2023-04-27T07:17:24.123Z,8.57
2023-04-27T07:18:26.959Z,8.59
2023-04-27T07:19:29.739Z,8.61
2023-04-27T07:20:32.255Z,8.59
2023-04-27T07:21:34.309Z,8.60
2023-04-27T07:22:36.907Z,8.59
2023-04-27T07:23:40.483Z,8.60
2023-04-27T07:24:42.750Z,8.59
2023-04-27T07:25:45.002Z,8.58
2023-04-27T07:26:47.386Z,8.59
2023-04-27T07:27:49.725Z,8.57
2023-04-27T07:28:51.785Z,8.59
2023-04-27T07:29:53.962Z,8.59
2023-04-27T07:30:56.125Z,8.61
2023-04-27T07:31:58.722Z,8.63
2023-04-27T07:33:01.242Z,8.65
2023-04-27T07:34:03.626Z,8.64
2023-04-27T07:35:06.264Z,8.64
2023-04-27T07:36:08.932Z,8.64
2023-04-27T07:37:12.193Z,8.64
2023-04-27T07:38:14.700Z,8.64
2023-04-27T07:39:17.232Z,8.64
2023-04-27T07:40:19.425Z,8.63
2023-04-27T07:41:21.962Z,8.63
2023-04-27T07:42:24.685Z,8.62
2023-04-27T07:43:27.552Z,8.63
2023-04-27T07:44:31.501Z,8.63
2023-04-27T07:45:34.347Z,8.67
2023-04-27T07:46:36.919Z,8.68
2023-04-27T07:47:39.282Z,8.69
2023-04-27T07:48:41.564Z,8.71
2023-04-27T07:49:44.640Z,8.69
2023-04-27T07:50:47.079Z,8.69
2023-04-27T07:51:49.129Z,8.71
2023-04-27T07:52:53.077Z,8.71
2023-04-27T07:53:55.797Z,8.73
2023-04-27T07:54:58.495Z,8.75
2023-04-27T07:56:01.168Z,8.70
2023-04-27T07:57:15.399Z,8.72
2023-04-27T07:58:18.085Z,8.73
2023-04-27T07:59:20.320Z,8.74
2023-04-27T08:00:23.314Z,8.75
2023-04-27T08:01:25.583Z,8.75
2023-04-27T08:02:28.159Z,8.81
2023-04-27T08:03:31.480Z,8.81
2023-04-27T08:04:34.601Z,8.81
2023-04-27T08:05:38.434Z,8.82
2023-04-27T08:06:42.204Z,8.87
2023-04-27T08:07:45.918Z,8.88
2023-04-27T08:08:48.537Z,8.89
2023-04-27T08:09:51.109Z,8.94
2023-04-27T08:10:53.366Z,8.93
2023-04-27T08:11:57.273Z,8.96
2023-04-27T08:13:00.109Z,8.99
2023-04-27T08:14:02.420Z,9.00
2023-04-27T08:15:08.711Z,8.97
2023-04-27T08:16:13.010Z,8.93
2023-04-27T08:17:15.648Z,8.94
2023-04-27T08:18:18.840Z,8.95
2023-04-27T08:19:21.077Z,8.97
2023-04-27T08:20:23.038Z,8.93
2023-04-27T08:21:25.187Z,8.97
2023-04-27T08:22:27.371Z,8.96
2023-04-27T08:23:31.840Z,8.98
2023-04-27T08:24:34.067Z,8.99
2023-04-27T08:25:36.133Z,9.03
2023-04-27T08:26:40.976Z,9.03
2023-04-27T08:27:43.795Z,9.02
2023-04-27T08:28:46.017Z,9.00
2023-04-27T08:29:48.727Z,8.99
2023-04-27T08:30:51.544Z,9.01
2023-04-27T08:31:56.310Z,8.99
2023-04-27T08:32:58.329Z,8.98
2023-04-27T08:34:00.726Z,8.95
2023-04-27T08:35:03.047Z,8.90
2023-04-27T08:36:06.367Z,8.90
2023-04-27T08:37:08.766Z,8.92
2023-04-27T08:38:11.245Z,8.90
2023-04-27T08:39:13.577Z,8.89
2023-04-27T08:40:16.847Z,8.88
2023-04-27T08:41:24.097Z,8.91
2023-04-27T08:42:26.318Z,8.88
2023-04-27T08:43:34.312Z,8.87
2023-04-27T08:44:41.867Z,8.84
2023-04-27T08:45:48.721Z,8.86
2023-04-27T08:46:51.697Z,8.87
2023-04-27T08:47:54.594Z,8.86
2023-04-27T08:48:59.849Z,8.86
2023-04-27T08:50:04.294Z,8.88
2023-04-27T08:51:10.572Z,8.86
2023-04-27T08:52:14.674Z,8.86
2023-04-27T08:53:18.289Z,8.91
2023-04-27T08:54:20.543Z,8.94
2023-04-27T08:55:23.705Z,8.95
2023-04-27T08:56:28.368Z,8.96
2023-04-27T08:57:30.549Z,8.96
2023-04-27T08:58:36.862Z,8.99
2023-04-27T08:59:39.918Z,9.00
2023-04-27T09:00:43.920Z,9.04
2023-04-27T09:01:47.483Z,9.04
2023-04-27T09:02:49.995Z,9.04
2023-04-27T09:03:57.357Z,9.04
2023-04-27T09:04:59.876Z,9.06
2023-04-27T09:06:06.325Z,9.03
2023-04-27T09:07:16.419Z,8.98
2023-04-27T09:08:18.559Z,8.99
2023-04-27T09:09:24.581Z,8.98
2023-04-27T09:10:27.013Z,8.99
2023-04-27T09:11:32.906Z,8.96
2023-04-27T09:12:35.583Z,8.98
2023-04-27T09:13:38.993Z,8.97
2023-04-27T09:14:41.798Z,8.97
2023-04-27T09:15:48.392Z,8.92
2023-04-27T09:16:55.046Z,8.91
2023-04-27T09:17:57.399Z,8.93
2023-04-27T09:18:59.606Z,8.96
2023-04-27T09:20:07.339Z,8.96
2023-04-27T09:21:09.956Z,8.99
2023-04-27T09:22:13.010Z,9.01
2023-04-27T09:23:31.331Z,9.01
2023-04-27T09:24:33.723Z,9.01
2023-04-27T09:25:36.484Z,9.01
2023-04-27T09:26:40.172Z,9.03
2023-04-27T09:27:44.060Z,9.01
2023-04-27T09:28:49.226Z,9.01
2023-04-27T09:29:51.961Z,9.01
2023-04-27T09:30:56.582Z,8.97
2023-04-27T09:31:59.411Z,9.00
2023-04-27T09:33:01.692Z,9.02
2023-04-27T09:34:04.029Z,9.00
2023-04-27T09:36:20.262Z,9.06
2023-04-27T09:37:23.119Z,8.91
2023-04-27T09:38:25.395Z,8.91
2023-04-27T09:39:28.652Z,8.91
2023-04-27T09:40:31.504Z,8.93
2023-04-27T09:41:35.149Z,8.93
2023-04-27T09:42:38.797Z,8.91
2023-04-27T09:43:43.452Z,8.92
2023-04-27T09:44:46.135Z,8.93
2023-04-27T09:45:49.206Z,8.94
2023-04-27T09:46:55.145Z,8.94
2023-04-27T09:47:57.931Z,8.97
2023-04-27T09:49:02.613Z,8.99
2023-04-27T09:50:06.061Z,9.00
2023-04-27T09:51:08.558Z,9.01
2023-04-27T09:52:11.362Z,9.06
2023-04-27T09:53:17.834Z,9.08
2023-04-27T09:54:24.083Z,9.10
2023-04-27T09:58:43.254Z,9.33
2023-04-27T09:59:55.117Z,9.25
2023-04-27T10:01:07.657Z,9.26
2023-04-27T10:02:24.123Z,9.22
2023-04-27T10:03:21.782Z,9.23
2023-04-27T10:04:55.526Z,9.21
2023-04-27T10:06:27.300Z,9.19
2023-04-27T10:07:31.605Z,9.20
2023-04-27T10:08:35.949Z,9.20
2023-04-27T10:09:43.991Z,9.20
2023-04-27T10:10:50.083Z,9.23
2023-04-27T10:11:54.574Z,9.27
2023-04-27T10:12:59.277Z,9.27
2023-04-27T10:14:05.663Z,9.28
2023-04-27T10:15:15.474Z,9.26
2023-04-27T10:16:18.679Z,9.21
2023-04-27T10:17:27.316Z,9.20
2023-04-27T10:18:30.584Z,9.23
2023-04-27T10:19:33.230Z,9.25
2023-04-27T10:20:36.876Z,9.26
2023-04-27T10:23:03.971Z,9.39
2023-04-27T10:24:07.815Z,9.23
2023-04-27T10:25:32.104Z,9.25
2023-04-27T10:26:36.040Z,9.22
2023-04-27T10:27:39.229Z,9.22
2023-04-27T10:28:41.468Z,9.25
2023-04-27T10:29:45.888Z,9.18
2023-04-27T10:30:49.702Z,9.18
2023-04-27T10:31:52.572Z,9.14
2023-04-27T10:32:57.111Z,9.15
2023-04-27T10:34:11.286Z,9.09
2023-04-27T10:35:13.955Z,9.09
2023-04-27T10:36:16.631Z,9.10
2023-04-27T10:37:18.811Z,9.08
2023-04-27T10:38:23.964Z,9.07
2023-04-27T10:39:43.702Z,9.07
2023-04-27T10:40:35.519Z,9.05
2023-04-27T10:41:37.925Z,9.05
2023-04-27T10:42:42.188Z,9.03
2023-04-27T10:43:44.974Z,9.07
2023-04-27T10:44:50.699Z,9.07
2023-04-27T10:45:53.176Z,9.06
2023-04-27T10:46:58.110Z,9.07
2023-04-27T10:48:01.575Z,9.08
2023-04-27T10:49:05.166Z,9.09
2023-04-27T10:50:09.101Z,9.09
2023-04-27T10:51:17.848Z,9.08
2023-04-27T10:52:20.267Z,9.08
2023-04-27T10:53:22.792Z,9.07
2023-04-27T10:54:27.185Z,9.04
2023-04-27T10:55:30.187Z,9.05
2023-04-27T10:56:33.302Z,9.04
2023-04-27T10:57:39.084Z,9.04
2023-04-27T10:58:49.076Z,9.04
2023-04-27T10:59:53.256Z,9.05
2023-04-27T11:00:55.858Z,9.02
2023-04-27T11:01:58.675Z,9.03
2023-04-27T11:03:15.950Z,9.04
2023-04-27T11:04:18.765Z,9.05
2023-04-27T11:05:24.242Z,9.07
2023-04-27T11:06:28.403Z,9.09
2023-04-27T11:07:30.536Z,9.10
2023-04-27T11:08:32.709Z,9.12
2023-04-27T11:09:39.392Z,9.09
2023-04-27T11:10:48.633Z,9.13
2023-04-27T11:11:50.915Z,9.11
2023-04-27T11:12:54.464Z,9.14
2023-04-27T11:13:57.727Z,9.18
2023-04-27T11:15:00.956Z,9.18
2023-04-27T11:16:04.540Z,9.18
2023-04-27T11:17:06.832Z,9.23
2023-04-27T11:18:09.622Z,9.23
2023-04-27T11:19:11.932Z,9.23
2023-04-27T11:20:16.379Z,9.21
2023-04-27T11:21:19.708Z,9.17
2023-04-27T11:22:22.174Z,9.16
2023-04-27T11:23:26.603Z,9.14
2023-04-27T11:24:29.359Z,9.14
2023-04-27T11:25:32.157Z,9.10
2023-04-27T11:26:35.119Z,9.10
2023-04-27T11:27:39.158Z,9.09
2023-04-27T11:29:53.328Z,9.13
2023-04-27T11:30:57.888Z,8.99
2023-04-27T11:32:00.750Z,9.00
2023-04-27T11:33:07.124Z,9.01
2023-04-27T11:34:13.802Z,9.01
2023-04-27T11:35:17.669Z,9.02
2023-04-27T11:36:22.180Z,9.05
2023-04-27T11:37:26.848Z,9.05
2023-04-27T11:38:34.784Z,9.09
2023-04-27T11:39:38.487Z,8.99
2023-04-27T11:40:40.575Z,8.97
2023-04-27T11:41:43.271Z,8.95
2023-04-27T11:42:45.414Z,8.95
2023-04-27T11:43:47.571Z,8.96
2023-04-27T11:44:58.427Z,8.95
2023-04-27T11:46:04.433Z,8.93
2023-04-27T11:47:06.791Z,8.91
2023-04-27T11:48:14.845Z,8.91
2023-04-27T11:49:17.652Z,8.89
2023-04-27T11:50:24.213Z,8.86
2023-04-27T11:51:28.632Z,8.83
2023-04-27T11:52:38.438Z,8.85
2023-04-27T11:53:41.225Z,8.86
2023-04-27T11:54:52.016Z,8.88
2023-04-27T11:55:54.210Z,8.90
2023-04-27T11:57:05.106Z,8.92
2023-04-27T11:58:16.771Z,8.92
2023-04-27T11:59:21.355Z,8.95
2023-04-27T12:00:24.170Z,8.93
2023-04-27T12:01:36.884Z,8.90
2023-04-27T12:02:31.723Z,8.92
2023-04-27T12:03:34.662Z,8.89
2023-04-27T12:04:37.858Z,8.91
2023-04-27T12:07:06.272Z,8.97
2023-04-27T12:08:08.942Z,8.83
2023-04-27T12:09:47.576Z,8.83
2023-04-27T12:10:50.230Z,8.83
2023-04-27T12:11:52.809Z,8.86
2023-04-27T12:12:54.984Z,8.86
2023-04-27T12:13:57.719Z,8.85
2023-04-27T12:14:59.657Z,8.83
2023-04-27T12:16:02.482Z,8.83
2023-04-27T12:17:04.701Z,8.82
2023-04-27T12:18:07.199Z,8.82
2023-04-27T12:19:09.469Z,8.83
2023-04-27T12:20:13.341Z,8.83
2023-04-27T12:21:16.347Z,8.80
2023-04-27T12:22:18.688Z,8.78
2023-04-27T12:23:20.881Z,8.76
2023-04-27T12:24:23.378Z,8.72
2023-04-27T12:25:25.671Z,8.70
2023-04-27T12:26:28.507Z,8.69
2023-04-27T12:27:30.784Z,8.71
2023-04-27T12:28:33.746Z,8.72
2023-04-27T12:29:36.859Z,8.74
2023-04-27T12:30:39.256Z,8.73
2023-04-27T12:31:49.800Z,8.73
2023-04-27T12:32:55.924Z,8.74
2023-04-27T12:33:59.133Z,8.73
2023-04-27T12:35:03.369Z,8.73
2023-04-27T12:36:06.460Z,8.72
2023-04-27T12:37:09.231Z,8.75
2023-04-27T12:38:11.353Z,8.73
2023-04-27T12:39:19.885Z,8.76
2023-04-27T12:40:22.214Z,8.77
2023-04-27T12:41:30.541Z,8.76
2023-04-27T12:42:33.402Z,8.76
2023-04-27T12:43:35.851Z,8.77
2023-04-27T12:44:38.003Z,8.78
2023-04-27T12:45:40.224Z,8.78
2023-04-27T12:46:43.837Z,8.79
2023-04-27T12:48:01.893Z,8.80
2023-04-27T12:48:53.396Z,8.81
2023-04-27T12:49:58.580Z,8.81
2023-04-27T12:51:01.981Z,8.82
2023-04-27T12:52:04.415Z,8.78
2023-04-27T12:53:06.622Z,8.80
2023-04-27T12:54:10.502Z,8.81
2023-04-27T12:55:24.899Z,8.79
2023-04-27T12:56:16.956Z,8.80
2023-04-27T12:57:19.138Z,8.78
2023-04-27T12:58:21.909Z,8.80
2023-04-27T12:59:24.164Z,8.78
2023-04-27T13:00:26.464Z,8.81
2023-04-27T13:01:28.847Z,8.84
2023-04-27T13:02:31.235Z,8.84
2023-04-27T13:03:34.825Z,8.84
2023-04-27T13:04:43.536Z,8.86
2023-04-27T13:05:51.069Z,8.84
2023-04-27T13:06:55.911Z,8.87
2023-04-27T13:07:58.582Z,8.86
2023-04-27T13:10:16.143Z,8.98
2023-04-27T13:11:18.437Z,8.83
2023-04-27T13:12:21.293Z,8.84
2023-04-27T13:13:23.992Z,8.85
2023-04-27T13:14:26.286Z,8.86
2023-04-27T13:15:28.960Z,8.88
2023-04-27T13:16:31.621Z,8.91
2023-04-27T13:17:33.886Z,8.92
2023-04-27T13:18:36.643Z,8.89
2023-04-27T13:19:38.756Z,8.87
2023-04-27T13:20:50.094Z,8.87
2023-04-27T13:21:52.992Z,8.83
2023-04-27T13:22:55.058Z,8.81
2023-04-27T13:24:00.167Z,8.79
2023-04-27T13:25:01.960Z,8.80
2023-04-27T13:26:04.772Z,8.81
2023-04-27T13:27:08.184Z,8.82
2023-04-27T13:29:37.641Z,8.94
2023-04-27T13:30:40.531Z,8.79
2023-04-27T13:31:43.196Z,8.81
2023-04-27T13:32:45.467Z,8.82
2023-04-27T13:36:46.440Z,8.92
2023-04-27T13:37:52.436Z,8.76
2023-04-27T13:38:59.733Z,8.77
2023-04-27T13:40:06.356Z,8.78
2023-04-27T13:41:10.884Z,8.77
2023-04-27T13:42:14.263Z,8.75
2023-04-27T13:43:16.703Z,8.74
2023-04-27T13:44:19.385Z,8.76
2023-04-27T13:45:21.434Z,8.74
2023-04-27T13:47:34.672Z,8.84
2023-04-27T13:48:36.828Z,8.72
2023-04-27T13:49:39.438Z,8.72
2023-04-27T13:50:41.533Z,8.73
2023-04-27T13:51:44.097Z,8.74
2023-04-27T13:52:46.675Z,8.75
2023-04-27T13:53:48.832Z,8.78
2023-04-27T13:54:51.455Z,8.77
2023-04-27T13:55:55.341Z,8.80
2023-04-27T13:56:58.069Z,8.78
2023-04-27T13:58:00.227Z,8.80
2023-04-27T13:59:02.309Z,8.81
2023-04-27T14:00:05.667Z,8.82
2023-04-27T14:01:09.747Z,8.83
2023-04-27T14:02:12.535Z,8.83
2023-04-27T14:03:15.810Z,8.80
2023-04-27T14:04:18.896Z,8.79
2023-04-27T14:05:23.377Z,8.78
2023-04-27T14:06:26.106Z,8.73
2023-04-27T14:07:28.287Z,8.73
2023-04-27T14:08:30.551Z,8.74
2023-04-27T14:09:33.714Z,8.77
2023-04-27T14:10:37.105Z,8.80
2023-04-27T14:11:48.471Z,8.84
2023-04-27T14:12:43.639Z,8.81
2023-04-27T14:13:47.777Z,8.83
2023-04-27T14:14:50.265Z,8.83
2023-04-27T14:15:52.314Z,8.83
2023-04-27T14:16:56.326Z,8.80
2023-04-27T14:17:58.637Z,8.84
2023-04-27T14:19:00.873Z,8.86